Time;durP1;ratioP1;P1;durP2;ratioP2;P2;SDS_P1;SDS_P2;PMS_P1;PMS_P2;Temp;Humidity;BMP_temperature;BMP_pressure;BME280_temperature;BME280_humidity;BME280_pressure;Samples;Min_cycle;Max_cycle;Signal;HPM_P1;HPM_P2
2023/04/19 00:00:52;;;;;;;18.63;12.27;;;9.20;99.90;;;;;;5061079;28;20040;-67
2023/04/19 00:03:18;;;;;;;16.77;12.32;;;9.20;99.90;;;;;;5054782;28;20463;-67
2023/04/19 00:05:44;;;;;;;17.15;11.88;;;9.10;99.90;;;;;;5052416;28;20156;-68
2023/04/19 00:08:10;;;;;;;17.75;12.75;;;9.10;99.90;;;;;;5053232;28;20509;-68
2023/04/19 00:10:37;;;;;;;17.00;11.77;;;9.10;99.90;;;;;;5054229;28;20048;-67
2023/04/19 00:13:03;;;;;;;18.45;12.57;;;9.10;99.90;;;;;;5054200;28;20071;-68
2023/04/19 00:15:29;;;;;;;16.90;12.05;;;9.20;99.90;;;;;;5053302;28;20032;-67
2023/04/19 00:17:55;;;;;;;19.52;12.55;;;9.10;99.90;;;;;;5051768;28;20049;-67
2023/04/19 00:20:21;;;;;;;17.55;11.95;;;9.10;99.90;;;;;;5058120;28;20060;-66
2023/04/19 00:22:46;;;;;;;18.52;12.10;;;9.10;99.90;;;;;;5052915;28;20435;-67
2023/04/19 00:25:12;;;;;;;17.55;12.90;;;9.10;99.90;;;;;;5056807;28;20457;-68
2023/04/19 00:27:38;;;;;;;18.05;12.82;;;9.10;99.90;;;;;;5055793;28;20041;-67
2023/04/19 00:30:04;;;;;;;18.23;12.77;;;9.00;99.90;;;;;;5056160;28;20043;-67
2023/04/19 00:32:29;;;;;;;18.10;12.95;;;9.00;99.90;;;;;;5053922;28;20458;-67
2023/04/19 00:34:55;;;;;;;19.05;12.18;;;9.00;99.90;;;;;;5055543;28;20041;-67
2023/04/19 00:37:21;;;;;;;16.80;11.88;;;9.00;99.90;;;;;;5053232;28;20045;-67
2023/04/19 00:39:46;;;;;;;17.02;11.75;;;9.00;99.90;;;;;;5056456;28;20206;-67
2023/04/19 00:42:12;;;;;;;15.18;11.77;;;8.90;99.90;;;;;;5058183;28;20045;-68
2023/04/19 00:44:37;;;;;;;19.30;12.68;;;8.90;99.90;;;;;;5069964;28;20078;-68
2023/04/19 00:47:03;;;;;;;18.95;12.13;;;8.90;99.90;;;;;;5071532;28;20132;-68
2023/04/19 00:49:29;;;;;;;17.77;11.77;;;8.90;99.90;;;;;;5062591;28;20417;-68
2023/04/19 00:51:55;;;;;;;18.30;12.27;;;8.80;99.90;;;;;;5057237;28;20045;-68
2023/04/19 00:54:21;;;;;;;16.75;12.27;;;8.80;99.90;;;;;;5068109;28;20052;-68
2023/04/19 00:56:46;;;;;;;18.25;12.07;;;8.80;99.90;;;;;;5057720;28;20056;-68
2023/04/19 00:59:14;;;;;;;18.20;12.18;;;8.80;99.90;;;;;;5064470;28;20045;-68
2023/04/19 01:01:40;;;;;;;17.17;11.48;;;8.70;99.90;;;;;;5057763;28;20037;-68
2023/04/19 01:04:06;;;;;;;15.43;11.73;;;8.70;99.90;;;;;;5058488;28;20094;-67
2023/04/19 01:06:35;;;;;;;16.95;11.75;;;8.70;99.90;;;;;;5059287;28;20063;-68
2023/04/19 01:09:01;;;;;;;16.60;11.82;;;8.60;99.90;;;;;;5057282;28;20105;-67
2023/04/19 01:11:27;;;;;;;16.05;11.30;;;8.60;99.90;;;;;;5057118;28;20037;-67
2023/04/19 01:13:54;;;;;;;16.05;10.90;;;8.60;99.90;;;;;;5054570;28;20095;-68
2023/04/19 01:16:20;;;;;;;16.88;11.02;;;8.60;99.90;;;;;;5056460;28;20044;-67
2023/04/19 01:18:45;;;;;;;15.50;10.80;;;8.60;99.90;;;;;;5058647;28;20444;-68
2023/04/19 01:21:11;;;;;;;16.50;10.02;;;8.60;99.90;;;;;;5060171;28;20079;-68
2023/04/19 01:23:40;;;;;;;19.40;10.95;;;8.70;99.90;;;;;;5051939;28;20044;-69
2023/04/19 01:26:06;;;;;;;15.55;10.65;;;8.70;99.90;;;;;;5060219;28;20058;-68
2023/04/19 01:28:32;;;;;;;15.15;10.70;;;8.70;99.90;;;;;;5058468;28;20367;-69
2023/04/19 01:30:57;;;;;;;15.80;10.43;;;8.80;99.90;;;;;;5056757;28;20037;-69
2023/04/19 01:33:23;;;;;;;14.65;10.15;;;8.70;99.90;;;;;;5058925;28;20432;-68
2023/04/19 01:35:49;;;;;;;15.45;9.88;;;8.80;99.90;;;;;;5055955;28;20099;-68
2023/04/19 01:38:15;;;;;;;16.70;10.95;;;8.80;99.90;;;;;;5059402;28;20028;-67
2023/04/19 01:40:41;;;;;;;15.40;9.27;;;8.80;99.90;;;;;;5055028;28;20080;-69
2023/04/19 01:43:07;;;;;;;13.95;9.57;;;8.80;99.90;;;;;;5071496;28;20120;-69
2023/04/19 01:45:35;;;;;;;13.70;9.75;;;8.80;99.90;;;;;;5053989;28;20074;-68
2023/04/19 01:48:01;;;;;;;13.77;9.32;;;8.90;99.90;;;;;;5058203;28;20499;-68
2023/04/19 01:50:27;;;;;;;14.30;9.32;;;8.80;99.90;;;;;;5057484;28;20135;-67
2023/04/19 01:52:53;;;;;;;13.35;9.07;;;8.90;99.90;;;;;;5054987;28;20131;-67
2023/04/19 01:55:18;;;;;;;15.10;9.82;;;8.80;99.90;;;;;;5058053;28;20266;-67
2023/04/19 01:57:44;;;;;;;14.85;9.48;;;8.80;99.90;;;;;;5061134;28;20055;-66
2023/04/19 02:00:11;;;;;;;12.90;8.77;;;8.80;99.90;;;;;;5053965;28;20060;-65
2023/04/19 02:02:37;;;;;;;14.30;9.07;;;8.80;99.90;;;;;;5057263;28;21450;-67
2023/04/19 02:05:04;;;;;;;13.13;9.07;;;8.80;99.90;;;;;;5053709;28;20140;-66
2023/04/19 02:07:30;;;;;;;11.25;7.78;;;8.80;99.90;;;;;;5051551;28;20052;-66
2023/04/19 02:09:58;;;;;;;13.48;8.40;;;8.80;99.90;;;;;;5057562;28;20049;-67
2023/04/19 02:12:27;;;;;;;13.52;8.85;;;8.80;99.90;;;;;;5057297;28;20131;-67
2023/04/19 02:14:56;;;;;;;13.23;8.30;;;8.90;99.90;;;;;;5059644;28;20500;-68
2023/04/19 02:17:22;;;;;;;12.50;8.25;;;8.80;99.90;;;;;;5049483;28;20156;-67
2023/04/19 02:19:47;;;;;;;12.63;8.20;;;8.80;99.90;;;;;;5051430;28;20049;-69
2023/04/19 02:22:13;;;;;;;12.65;8.20;;;8.80;99.90;;;;;;5051320;28;20067;-68
2023/04/19 02:24:39;;;;;;;10.23;7.47;;;8.80;99.90;;;;;;5052395;28;20128;-69
2023/04/19 02:27:04;;;;;;;13.68;7.85;;;8.70;99.90;;;;;;5052222;28;20045;-68
2023/04/19 02:29:32;;;;;;;12.45;7.80;;;8.70;99.90;;;;;;5049837;28;22179;-68
2023/04/19 02:31:57;;;;;;;12.60;7.43;;;8.70;99.90;;;;;;5049425;28;20040;-68
2023/04/19 02:34:23;;;;;;;12.48;8.18;;;8.70;99.90;;;;;;5053083;28;20417;-69
2023/04/19 02:36:48;;;;;;;10.43;7.15;;;8.70;99.90;;;;;;5054582;28;20064;-69
2023/04/19 02:39:15;;;;;;;12.98;8.02;;;8.60;99.90;;;;;;5051415;28;20064;-69
2023/04/19 02:41:41;;;;;;;12.50;8.00;;;8.70;99.90;;;;;;5054828;28;20159;-69
2023/04/19 02:44:07;;;;;;;11.10;7.45;;;8.60;99.90;;;;;;5050974;28;20113;-68
2023/04/19 02:46:32;;;;;;;13.48;8.02;;;8.60;99.90;;;;;;5052994;28;20075;-69
2023/04/19 02:49:00;;;;;;;11.52;7.78;;;8.70;99.90;;;;;;5049483;28;20045;-69
2023/04/19 02:51:25;;;;;;;11.93;7.50;;;8.70;99.90;;;;;;5053039;28;20053;-69
2023/04/19 02:53:51;;;;;;;10.88;7.70;;;8.70;99.90;;;;;;5051917;28;20403;-69
2023/04/19 02:56:17;;;;;;;11.50;8.18;;;8.70;99.90;;;;;;5061953;28;20416;-69
2023/04/19 02:58:43;;;;;;;12.32;7.80;;;8.60;99.90;;;;;;5066205;28;20053;-69
2023/04/19 03:01:09;;;;;;;11.05;7.47;;;8.60;99.90;;;;;;5062445;28;20063;-68
2023/04/19 03:03:34;;;;;;;11.25;7.05;;;8.60;99.90;;;;;;5061576;28;20123;-68
2023/04/19 03:06:01;;;;;;;13.23;7.53;;;8.60;99.90;;;;;;5053569;28;20040;-69
2023/04/19 03:08:26;;;;;;;10.77;6.88;;;8.60;99.90;;;;;;5059633;28;20044;-68
2023/04/19 03:10:52;;;;;;;12.15;7.28;;;8.50;99.90;;;;;;5058675;28;20052;-69
2023/04/19 03:13:17;;;;;;;14.25;7.40;;;8.50;99.90;;;;;;5057256;28;20440;-68
2023/04/19 03:15:43;;;;;;;12.23;7.45;;;8.50;99.90;;;;;;5064750;28;20044;-68
2023/04/19 03:18:09;;;;;;;10.93;7.60;;;8.40;99.90;;;;;;5060003;28;20041;-68
2023/04/19 03:20:34;;;;;;;11.63;6.60;;;8.40;99.90;;;;;;5062413;28;20506;-69
2023/04/19 03:23:00;;;;;;;11.23;6.88;;;8.40;99.90;;;;;;5064082;28;20051;-68
2023/04/19 03:25:25;;;;;;;11.40;6.97;;;8.40;99.90;;;;;;5060221;28;20056;-68
2023/04/19 03:27:51;;;;;;;12.32;6.68;;;8.40;99.90;;;;;;5060479;28;20052;-68
2023/04/19 03:30:17;;;;;;;11.45;7.15;;;8.30;99.90;;;;;;5060430;28;20037;-68
2023/04/19 03:32:43;;;;;;;12.25;7.13;;;8.30;99.90;;;;;;5059262;28;20041;-68
2023/04/19 03:35:09;;;;;;;11.75;7.45;;;8.20;99.90;;;;;;5060497;28;20044;-69
2023/04/19 03:37:34;;;;;;;11.65;6.95;;;8.10;99.90;;;;;;5054421;28;20056;-68
2023/04/19 03:40:00;;;;;;;10.88;6.95;;;8.10;99.90;;;;;;5055706;28;21898;-68
2023/04/19 03:42:26;;;;;;;12.13;7.38;;;8.00;99.90;;;;;;5056386;28;20040;-69
2023/04/19 03:44:51;;;;;;;14.50;7.55;;;8.00;99.90;;;;;;5060667;28;20052;-67
2023/04/19 03:47:17;;;;;;;12.77;7.47;;;8.00;99.90;;;;;;5058794;28;20033;-68
2023/04/19 03:49:42;;;;;;;13.13;7.82;;;7.90;99.90;;;;;;5060118;28;20536;-68
2023/04/19 03:52:08;;;;;;;12.23;7.80;;;7.90;99.90;;;;;;5056349;28;20033;-68
2023/04/19 03:54:34;;;;;;;11.20;6.93;;;7.80;99.90;;;;;;5059249;28;20258;-68
2023/04/19 03:56:59;;;;;;;13.65;8.07;;;7.80;99.90;;;;;;5056757;28;20611;-68
2023/04/19 03:59:25;;;;;;;12.15;7.63;;;7.70;99.90;;;;;;5057536;28;20806;-68
2023/04/19 04:01:51;;;;;;;12.00;7.70;;;7.70;99.90;;;;;;5058622;28;20056;-68
2023/04/19 04:04:16;;;;;;;12.07;7.95;;;7.70;99.90;;;;;;5054517;28;20080;-69
2023/04/19 04:06:43;;;;;;;11.90;8.73;;;7.70;99.90;;;;;;5042266;28;20165;-68
2023/04/19 04:09:08;;;;;;;12.50;8.40;;;7.60;99.90;;;;;;5056223;28;20476;-68
2023/04/19 04:11:34;;;;;;;11.50;8.27;;;7.50;99.90;;;;;;5056639;28;20052;-68
2023/04/19 04:13:59;;;;;;;12.23;8.07;;;7.40;99.90;;;;;;5059244;28;20047;-68
2023/04/19 04:16:25;;;;;;;12.48;8.20;;;7.40;99.90;;;;;;5059151;28;20039;-68
2023/04/19 04:18:51;;;;;;;12.57;8.07;;;7.40;99.90;;;;;;5057363;28;20443;-67
2023/04/19 04:21:16;;;;;;;12.43;7.68;;;7.30;99.90;;;;;;5059075;28;20032;-68
2023/04/19 04:23:42;;;;;;;13.88;7.95;;;7.30;99.90;;;;;;5058448;28;20036;-68
2023/04/19 04:26:08;;;;;;;14.75;8.30;;;7.20;99.90;;;;;;5055576;28;20460;-67
2023/04/19 04:28:35;;;;;;;14.57;8.73;;;7.20;99.90;;;;;;5054851;28;20182;-68
2023/04/19 04:31:00;;;;;;;14.27;8.40;;;7.20;99.90;;;;;;5057502;28;20376;-68
2023/04/19 04:33:27;;;;;;;13.32;8.38;;;7.20;99.90;;;;;;5058363;28;20048;-68
2023/04/19 04:35:53;;;;;;;13.60;8.35;;;7.10;99.90;;;;;;5055495;28;20163;-67
2023/04/19 04:38:20;;;;;;;12.82;7.95;;;7.10;99.90;;;;;;5054934;28;20489;-68
2023/04/19 04:41:04;;;;;;;12.85;8.20;;;7.10;99.90;;;;;;5052278;28;20740;-68
2023/04/19 04:43:31;;;;;;;10.43;7.35;;;7.00;99.90;;;;;;5050153;28;20060;-68
2023/04/19 04:45:56;;;;;;;12.05;7.60;;;7.00;99.90;;;;;;5057025;28;20037;-67
2023/04/19 04:48:23;;;;;;;13.63;7.47;;;7.00;99.90;;;;;;5054788;28;20028;-68
2023/04/19 04:50:49;;;;;;;12.38;7.63;;;7.10;99.90;;;;;;5056335;28;20060;-68
2023/04/19 04:53:14;;;;;;;9.88;6.80;;;7.00;99.90;;;;;;5050695;28;20138;-67
2023/04/19 04:55:40;;;;;;;11.82;7.38;;;7.10;99.90;;;;;;5060522;28;20044;-68
2023/04/19 04:58:06;;;;;;;13.73;7.30;;;7.10;99.90;;;;;;5061646;28;20120;-68
2023/04/19 05:00:32;;;;;;;11.02;7.22;;;7.20;99.90;;;;;;5056340;28;20106;-68
2023/04/19 05:02:58;;;;;;;11.68;7.22;;;7.30;99.90;;;;;;5057066;28;20121;-68
2023/04/19 05:05:24;;;;;;;12.20;7.35;;;7.70;99.90;;;;;;5060336;28;20041;-68
2023/04/19 05:07:49;;;;;;;11.63;7.20;;;8.40;99.90;;;;;;5059038;28;20506;-67
2023/04/19 05:10:15;;;;;;;11.50;7.10;;;8.90;99.90;;;;;;5060586;28;20143;-68
2023/04/19 05:12:41;;;;;;;9.65;6.47;;;9.20;99.90;;;;;;5058583;28;20041;-67
2023/04/19 05:15:07;;;;;;;9.85;6.50;;;9.30;99.90;;;;;;5058034;28;20802;-67
2023/04/19 05:17:33;;;;;;;10.65;6.57;;;9.10;99.90;;;;;;5057300;28;20451;-68
2023/04/19 05:19:59;;;;;;;11.20;6.00;;;8.90;99.90;;;;;;5062787;28;20071;-68
2023/04/19 05:22:25;;;;;;;10.65;6.30;;;8.70;99.90;;;;;;5058055;28;20166;-68
2023/04/19 05:24:51;;;;;;;9.63;6.15;;;8.40;99.90;;;;;;5060184;28;20507;-67
2023/04/19 05:27:16;;;;;;;10.00;5.80;;;8.20;99.90;;;;;;5051555;28;20083;-67
2023/04/19 05:29:42;;;;;;;9.30;5.88;;;8.10;99.90;;;;;;5052476;28;20037;-68
2023/04/19 05:32:07;;;;;;;9.65;5.78;;;8.00;99.90;;;;;;5052711;28;20048;-67
2023/04/19 05:34:34;;;;;;;9.82;6.15;;;8.00;99.90;;;;;;5053649;28;20128;-68
2023/04/19 05:37:01;;;;;;;10.20;6.07;;;8.00;99.90;;;;;;5057583;28;20037;-67
2023/04/19 05:39:26;;;;;;;9.20;5.63;;;7.90;99.90;;;;;;5051889;28;20353;-68
2023/04/19 05:41:52;;;;;;;10.88;6.03;;;8.00;99.90;;;;;;5051749;28;20055;-68
2023/04/19 05:44:17;;;;;;;10.82;5.80;;;8.00;99.90;;;;;;5052686;28;20468;-68
2023/04/19 05:46:43;;;;;;;10.68;6.70;;;7.90;99.90;;;;;;5053676;28;20471;-67
2023/04/19 05:49:09;;;;;;;8.75;5.50;;;7.90;99.90;;;;;;5050498;28;20091;-67
2023/04/19 05:51:34;;;;;;;9.20;6.07;;;7.90;99.90;;;;;;5052212;28;20132;-68
2023/04/19 05:54:00;;;;;;;9.48;6.03;;;7.80;99.90;;;;;;5050799;28;20092;-68
2023/04/19 05:56:26;;;;;;;8.35;5.47;;;7.90;99.90;;;;;;5052461;28;20048;-68
2023/04/19 05:58:51;;;;;;;11.90;6.18;;;8.00;99.90;;;;;;5052321;28;20130;-68
2023/04/19 06:01:17;;;;;;;10.63;6.28;;;8.00;99.90;;;;;;5054172;28;20063;-67
2023/04/19 06:03:43;;;;;;;9.70;5.75;;;8.00;99.90;;;;;;5052585;28;20098;-68
2023/04/19 06:06:08;;;;;;;10.05;5.60;;;8.00;99.90;;;;;;5055645;28;20119;-68
2023/04/19 06:08:34;;;;;;;9.13;5.60;;;8.10;99.90;;;;;;5068826;28;20064;-68
2023/04/19 06:11:00;;;;;;;8.50;5.45;;;8.20;99.90;;;;;;5061419;28;20118;-69
2023/04/19 06:13:25;;;;;;;8.13;5.25;;;8.30;99.90;;;;;;5061755;28;20072;-69
2023/04/19 06:15:51;;;;;;;7.82;4.85;;;8.30;99.90;;;;;;5053852;28;20150;-68
2023/04/19 06:18:17;;;;;;;8.45;5.28;;;8.30;99.90;;;;;;5062181;28;20033;-69
2023/04/19 06:20:42;;;;;;;8.27;5.43;;;8.30;99.90;;;;;;5067223;28;20356;-68
2023/04/19 06:23:08;;;;;;;9.05;4.97;;;8.30;99.90;;;;;;5067063;28;20151;-68
2023/04/19 06:25:34;;;;;;;7.88;4.55;;;8.40;99.90;;;;;;5059830;28;20060;-68
2023/04/19 06:28:00;;;;;;;9.68;4.13;;;8.40;99.90;;;;;;5056641;28;20496;-68
2023/04/19 06:30:26;;;;;;;9.18;4.75;;;8.50;99.90;;;;;;5066100;28;20439;-68
2023/04/19 06:32:52;;;;;;;7.65;4.15;;;8.50;99.90;;;;;;5053268;28;20079;-68
2023/04/19 06:35:17;;;;;;;6.75;4.45;;;8.50;99.90;;;;;;5056292;28;20349;-68
2023/04/19 06:37:43;;;;;;;9.40;4.20;;;8.70;99.90;;;;;;5055980;28;20048;-68
2023/04/19 06:40:10;;;;;;;7.75;4.03;;;8.70;99.90;;;;;;5053677;28;20060;-68
2023/04/19 06:42:36;;;;;;;9.40;4.30;;;8.80;99.90;;;;;;5055862;28;20041;-68
2023/04/19 06:45:03;;;;;;;7.72;4.22;;;8.90;99.90;;;;;;5065215;28;20044;-67
2023/04/19 06:47:29;;;;;;;7.18;4.15;;;8.90;99.90;;;;;;5054214;28;20170;-69
2023/04/19 06:49:56;;;;;;;7.93;4.43;;;9.00;99.90;;;;;;5049586;28;20482;-68
2023/04/19 06:52:21;;;;;;;7.65;4.25;;;9.10;99.90;;;;;;5057340;28;20567;-67
2023/04/19 06:54:48;;;;;;;7.97;4.40;;;9.10;99.90;;;;;;5066481;28;20127;-67
2023/04/19 06:57:15;;;;;;;7.05;4.20;;;9.20;99.90;;;;;;5066843;28;20101;-68
2023/04/19 06:59:40;;;;;;;9.02;4.30;;;9.30;99.90;;;;;;5064818;28;20055;-68
2023/04/19 07:02:06;;;;;;;7.95;4.03;;;9.40;99.90;;;;;;5057037;28;20079;-67
2023/04/19 07:04:32;;;;;;;7.10;3.80;;;9.40;99.90;;;;;;5049626;28;20045;-68
2023/04/19 07:06:57;;;;;;;7.82;3.70;;;9.40;99.90;;;;;;5055702;28;20040;-67
2023/04/19 07:09:23;;;;;;;7.43;3.70;;;9.50;99.90;;;;;;5065132;28;20060;-67
2023/04/19 07:11:50;;;;;;;7.25;3.40;;;9.60;99.90;;;;;;5055209;28;20037;-67
2023/04/19 07:14:17;;;;;;;7.10;3.60;;;9.50;99.90;;;;;;5050426;28;20045;-67
2023/04/19 07:16:44;;;;;;;7.00;3.47;;;9.60;99.90;;;;;;5063600;28;20123;-67
2023/04/19 07:19:11;;;;;;;8.30;3.00;;;9.60;99.90;;;;;;5056069;28;20119;-67
2023/04/19 07:21:38;;;;;;;5.85;3.08;;;9.70;99.90;;;;;;5064716;28;20041;-67
2023/04/19 07:24:06;;;;;;;6.55;3.38;;;9.80;99.90;;;;;;5067091;28;20052;-67
2023/04/19 07:26:32;;;;;;;6.38;2.83;;;9.80;99.90;;;;;;5053240;28;20476;-69
2023/04/19 07:28:59;;;;;;;6.47;2.90;;;9.80;99.90;;;;;;5066794;28;20044;-69
2023/04/19 07:31:25;;;;;;;5.70;3.15;;;9.90;99.90;;;;;;5067091;28;20044;-69
2023/04/19 07:33:51;;;;;;;6.35;2.30;;;9.90;99.90;;;;;;5058325;28;20238;-67
2023/04/19 07:36:17;;;;;;;5.55;2.55;;;9.90;99.90;;;;;;5057159;28;20128;-67
2023/04/19 07:38:42;;;;;;;5.15;2.80;;;10.00;99.90;;;;;;5051219;28;20128;-67
2023/04/19 07:41:08;;;;;;;5.05;2.42;;;10.00;99.90;;;;;;5067254;28;20036;-67
2023/04/19 07:43:34;;;;;;;7.88;2.50;;;10.10;99.90;;;;;;5067717;28;20103;-67
2023/04/19 07:46:00;;;;;;;4.78;2.20;;;10.30;99.90;;;;;;5056424;28;20041;-68
2023/04/19 07:48:25;;;;;;;4.93;2.25;;;10.30;99.90;;;;;;5062379;28;20042;-67
2023/04/19 07:50:51;;;;;;;5.25;1.80;;;10.40;99.90;;;;;;5059952;28;20035;-66
2023/04/19 07:53:17;;;;;;;6.95;2.08;;;10.40;99.90;;;;;;5062927;28;20118;-66
2023/04/19 07:55:43;;;;;;;4.55;2.10;;;10.40;99.60;;;;;;5070242;28;20059;-66
2023/04/19 07:58:09;;;;;;;5.70;2.10;;;10.50;99.90;;;;;;5052659;28;20045;-66
2023/04/19 08:00:36;;;;;;;3.75;1.75;;;10.60;99.90;;;;;;5069158;28;20075;-66
2023/04/19 08:03:02;;;;;;;5.35;2.00;;;10.70;99.90;;;;;;5058663;28;20052;-67
2023/04/19 08:05:30;;;;;;;4.45;1.90;;;10.70;99.80;;;;;;5053349;28;20341;-66
2023/04/19 08:07:55;;;;;;;4.35;1.75;;;10.80;98.70;;;;;;5071893;28;20137;-67
2023/04/19 08:10:21;;;;;;;4.85;1.80;;;10.80;98.90;;;;;;5072617;28;20511;-67
2023/04/19 08:12:48;;;;;;;6.82;1.70;;;10.80;98.20;;;;;;5073716;28;20177;-67
2023/04/19 08:15:14;;;;;;;5.28;1.70;;;10.90;98.80;;;;;;5071996;28;20072;-67
2023/04/19 08:17:44;;;;;;;4.10;2.10;;;11.00;98.00;;;;;;5074027;28;20104;-67
2023/04/19 08:20:11;;;;;;;3.42;1.60;;;11.00;96.30;;;;;;5064843;28;20040;-67
2023/04/19 08:22:38;;;;;;;4.35;1.63;;;11.20;98.00;;;;;;5072482;28;20086;-67
2023/04/19 08:25:05;;;;;;;3.85;1.60;;;11.30;98.40;;;;;;5069772;28;20715;-66
2023/04/19 08:27:31;;;;;;;4.43;1.80;;;11.40;98.20;;;;;;5063668;28;20452;-66
2023/04/19 08:29:56;;;;;;;3.97;1.85;;;11.40;97.20;;;;;;5067109;28;20097;-66
2023/04/19 08:32:22;;;;;;;3.10;1.50;;;11.40;94.70;;;;;;5066918;28;20040;-66
2023/04/19 08:34:48;;;;;;;3.75;1.95;;;11.40;94.80;;;;;;5053740;28;20040;-68
2023/04/19 08:37:13;;;;;;;4.70;2.17;;;11.40;94.90;;;;;;5076925;28;20045;-67
2023/04/19 08:39:39;;;;;;;3.88;1.70;;;11.50;94.70;;;;;;5066004;28;20097;-67
2023/04/19 08:42:06;;;;;;;5.07;2.00;;;11.60;94.50;;;;;;5065672;28;20052;-68
2023/04/19 08:44:32;;;;;;;4.25;2.00;;;11.60;94.10;;;;;;5062542;28;20364;-68
2023/04/19 08:47:00;;;;;;;5.90;2.00;;;11.70;93.70;;;;;;5071954;28;20091;-67
2023/04/19 08:49:27;;;;;;;4.82;2.30;;;11.80;93.10;;;;;;5061433;28;20045;-67
2023/04/19 08:51:56;;;;;;;3.90;2.20;;;11.80;92.80;;;;;;5057997;28;20041;-67
2023/04/19 08:54:22;;;;;;;5.03;1.98;;;11.80;91.80;;;;;;5065911;28;20053;-66
2023/04/19 08:56:48;;;;;;;6.55;1.98;;;11.90;91.10;;;;;;5053251;28;20041;-65
2023/04/19 08:59:14;;;;;;;5.25;2.35;;;11.90;91.40;;;;;;5063771;28;20052;-67
2023/04/19 09:01:40;;;;;;;4.13;2.00;;;12.00;90.20;;;;;;5069670;28;20098;-65
2023/04/19 09:04:06;;;;;;;4.95;2.22;;;12.00;90.70;;;;;;5058309;28;20483;-66
2023/04/19 09:06:40;;;;;;;5.10;2.22;;;12.10;90.80;;;;;;5056865;28;20045;-66
2023/04/19 09:09:19;;;;;;;5.45;2.55;;;12.20;87.90;;;;;;5056190;28;20411;-66
2023/04/19 09:11:44;;;;;;;4.82;2.45;;;12.30;87.80;;;;;;5064597;28;20040;-66
2023/04/19 09:14:13;;;;;;;5.07;2.38;;;12.40;88.80;;;;;;5057941;28;20473;-66
2023/04/19 09:16:39;;;;;;;5.28;2.30;;;12.40;89.70;;;;;;5070904;28;20043;-66
2023/04/19 09:19:05;;;;;;;4.25;2.38;;;12.50;84.10;;;;;;5069982;28;20368;-66
2023/04/19 09:21:32;;;;;;;4.43;2.20;;;12.40;80.60;;;;;;5071861;28;20119;-67
2023/04/19 09:23:59;;;;;;;7.53;2.70;;;12.40;80.70;;;;;;5071732;28;20075;-66
2023/04/19 09:26:28;;;;;;;6.15;2.47;;;12.40;78.90;;;;;;5061082;28;20037;-66
2023/04/19 09:29:05;;;;;;;5.03;2.72;;;12.40;75.80;;;;;;5064543;28;20087;-66
2023/04/19 09:31:33;;;;;;;5.22;2.65;;;12.40;72.60;;;;;;5057536;28;20045;-66
2023/04/19 09:34:13;;;;;;;8.80;2.58;;;12.40;72.40;;;;;;5052323;28;20067;-66
2023/04/19 09:36:39;;;;;;;5.75;2.67;;;12.50;77.70;;;;;;5053004;28;20044;-66
2023/04/19 09:39:04;;;;;;;5.93;2.80;;;12.60;72.00;;;;;;5069300;28;20375;-66
2023/04/19 09:41:32;;;;;;;5.35;2.20;;;12.60;72.10;;;;;;5068310;28;20046;-66
2023/04/19 09:44:11;;;;;;;5.43;2.53;;;12.60;71.10;;;;;;5059323;28;20358;-66
2023/04/19 09:46:39;;;;;;;4.43;2.20;;;12.70;73.70;;;;;;5071193;28;20495;-66
2023/04/19 09:49:14;;;;;;;4.85;2.50;;;12.80;70.60;;;;;;5068628;28;20044;-66
2023/04/19 09:51:45;;;;;;;5.70;2.67;;;13.00;74.70;;;;;;5051710;28;20087;-66
2023/04/19 09:54:12;;;;;;;4.72;2.30;;;13.10;74.10;;;;;;5056796;28;20147;-67
2023/04/19 09:56:37;;;;;;;5.43;2.30;;;13.20;76.60;;;;;;5051567;28;20452;-66
2023/04/19 09:59:04;;;;;;;5.13;2.70;;;13.20;71.10;;;;;;5070880;28;20056;-66
2023/04/19 10:01:34;;;;;;;5.82;2.50;;;13.20;69.40;;;;;;5061978;28;20045;-66
2023/04/19 10:04:05;;;;;;;5.38;2.70;;;13.20;67.70;;;;;;5064634;28;20186;-66
2023/04/19 10:06:33;;;;;;;5.45;2.53;;;13.20;69.00;;;;;;5054786;28;20049;-66
2023/04/19 10:09:04;;;;;;;5.63;2.22;;;13.20;70.60;;;;;;5050813;28;20458;-66
2023/04/19 10:11:37;;;;;;;5.30;2.53;;;13.40;71.40;;;;;;5061764;28;20051;-66
2023/04/19 10:14:10;;;;;;;4.47;2.17;;;13.40;69.10;;;;;;5070870;28;20036;-66
2023/04/19 10:16:37;;;;;;;4.10;2.22;;;13.40;67.20;;;;;;5068392;28;20411;-67
2023/04/19 10:19:09;;;;;;;4.40;2.17;;;13.40;67.60;;;;;;5068567;28;20123;-66
2023/04/19 10:21:36;;;;;;;4.47;2.28;;;13.50;68.90;;;;;;5057620;28;20052;-66
2023/04/19 10:24:03;;;;;;;7.13;2.58;;;13.60;69.60;;;;;;5050310;28;20041;-66
2023/04/19 10:26:29;;;;;;;4.90;2.33;;;13.70;69.60;;;;;;5059481;28;20033;-66
2023/04/19 10:28:58;;;;;;;5.63;2.25;;;13.70;67.50;;;;;;5061012;28;20040;-66
2023/04/19 10:31:25;;;;;;;4.32;2.28;;;13.60;65.20;;;;;;5059177;28;20127;-66
2023/04/19 10:33:51;;;;;;;5.25;2.40;;;13.70;65.70;;;;;;5050638;28;20045;-67
2023/04/19 10:36:17;;;;;;;4.00;2.10;;;13.60;66.00;;;;;;5060503;28;20045;-66
2023/04/19 10:38:48;;;;;;;4.15;2.47;;;13.50;64.70;;;;;;5068889;28;20044;-66
2023/04/19 10:41:14;;;;;;;7.00;2.63;;;13.50;66.80;;;;;;5055885;28;20073;-66
2023/04/19 10:43:47;;;;;;;4.88;2.15;;;13.40;65.10;;;;;;5060116;28;20037;-66
2023/04/19 10:46:15;;;;;;;4.60;2.28;;;13.50;66.60;;;;;;5050268;28;20056;-66
2023/04/19 10:49:00;;;;;;;4.13;2.08;;;13.60;68.30;;;;;;5050093;28;20044;-66
2023/04/19 10:51:37;;;;;;;;;;;13.50;65.20;;;;;;5056625;28;20060;-66
2023/04/19 10:54:07;;;;;;;5.47;2.30;;;13.60;66.00;;;;;;5048211;28;20343;-66
2023/04/19 10:56:33;;;;;;;6.70;2.20;;;13.70;69.40;;;;;;5066599;28;20472;-66
2023/04/19 10:59:03;;;;;;;5.03;2.05;;;13.70;67.80;;;;;;5068139;28;20123;-66
2023/04/19 11:01:38;;;;;;;4.95;2.08;;;13.60;67.30;;;;;;5062976;28;20127;-67
2023/04/19 11:04:11;;;;;;;;;;;13.80;67.70;;;;;;5062676;28;20059;-66
2023/04/19 11:07:00;;;;;;;4.22;2.22;;;13.80;69.20;;;;;;5069195;28;19920;-67
2023/04/19 11:09:25;;;;;;;5.07;2.25;;;13.80;66.50;;;;;;5055354;28;20287;-67
2023/04/19 11:11:52;;;;;;;4.65;2.03;;;13.90;67.20;;;;;;5065414;28;20066;-66
2023/04/19 11:14:20;;;;;;;4.15;2.22;;;14.00;68.30;;;;;;5070072;28;20047;-66
2023/04/19 11:16:45;;;;;;;4.38;1.85;;;14.10;67.60;;;;;;5070691;28;20116;-66
2023/04/19 11:19:15;;;;;;;4.50;2.03;;;14.10;67.40;;;;;;5063635;28;20174;-67
2023/04/19 11:21:40;;;;;;;4.13;1.98;;;14.10;65.70;;;;;;5058402;28;20041;-66
2023/04/19 11:24:09;;;;;;;5.05;2.10;;;14.20;66.50;;;;;;5049691;28;20040;-66
2023/04/19 11:26:35;;;;;;;4.55;1.95;;;14.30;65.90;;;;;;5060250;28;20037;-66
2023/04/19 11:29:00;;;;;;;3.85;2.17;;;14.30;62.70;;;;;;5062930;28;20036;-66
2023/04/19 11:31:26;;;;;;;4.85;1.90;;;14.30;61.60;;;;;;5062785;28;20065;-66
2023/04/19 11:33:53;;;;;;;3.75;2.03;;;14.40;62.80;;;;;;5050000;28;20044;-66
2023/04/19 11:36:18;;;;;;;5.38;2.13;;;14.50;62.10;;;;;;5062795;28;20145;-66
2023/04/19 11:38:48;;;;;;;3.92;2.03;;;14.60;63.70;;;;;;5062140;28;20180;-66
2023/04/19 11:41:14;;;;;;;6.53;2.00;;;14.60;62.20;;;;;;5068438;28;20130;-66
2023/04/19 11:43:40;;;;;;;4.88;2.08;;;14.60;61.40;;;;;;5054989;28;20357;-66
2023/04/19 11:46:10;;;;;;;6.03;1.88;;;14.60;61.20;;;;;;5058782;28;20037;-66
2023/04/19 11:48:36;;;;;;;4.93;2.17;;;14.60;61.80;;;;;;5054931;28;20087;-66
2023/04/19 11:51:03;;;;;;;3.65;1.75;;;14.70;63.10;;;;;;5064204;28;20498;-67
2023/04/19 11:53:30;;;;;;;5.57;1.98;;;14.80;62.40;;;;;;5068736;28;20424;-67
2023/04/19 11:56:02;;;;;;;2.92;1.70;;;14.90;63.70;;;;;;5066320;28;20067;-66
2023/04/19 11:58:35;;;;;;;4.00;2.00;;;15.00;62.30;;;;;;5071328;28;20048;-66
2023/04/19 12:01:05;;;;;;;5.25;2.05;;;15.00;62.00;;;;;;5063370;28;20043;-67
2023/04/19 12:03:38;;;;;;;4.35;1.88;;;15.00;63.10;;;;;;5052744;28;20041;-66
2023/04/19 12:06:09;;;;;;;3.03;1.60;;;14.90;61.50;;;;;;5061470;28;20060;-66
2023/04/19 12:08:36;;;;;;;3.63;1.90;;;15.00;62.40;;;;;;5069579;28;20053;-67
2023/04/19 12:11:03;;;;;;;6.97;2.05;;;15.00;62.00;;;;;;5068649;28;20060;-66
2023/04/19 12:13:32;;;;;;;5.85;2.40;;;14.90;60.30;;;;;;5072779;28;20045;-65
2023/04/19 12:15:58;;;;;;;3.72;2.10;;;15.00;61.20;;;;;;5064059;28;20533;-66
2023/04/19 12:18:26;;;;;;;4.00;2.00;;;15.00;61.70;;;;;;5065445;28;20117;-66
2023/04/19 12:20:52;;;;;;;6.55;1.80;;;15.00;62.30;;;;;;5063761;28;20123;-66
2023/04/19 12:23:19;;;;;;;4.47;1.80;;;15.00;61.30;;;;;;5061058;28;20062;-68
2023/04/19 12:25:47;;;;;;;5.53;1.88;;;15.10;60.00;;;;;;5063181;28;20040;-67
2023/04/19 12:28:14;;;;;;;5.07;1.80;;;15.10;61.20;;;;;;5060383;28;20119;-67
2023/04/19 12:30:40;;;;;;;6.32;2.42;;;15.10;61.70;;;;;;5058885;28;21497;-67
2023/04/19 12:33:07;;;;;;;4.78;2.20;;;15.10;62.00;;;;;;5057412;28;20048;-67
2023/04/19 12:35:33;;;;;;;5.15;2.28;;;15.10;61.60;;;;;;5058710;28;20103;-67
2023/04/19 12:37:59;;;;;;;4.45;2.20;;;15.00;61.50;;;;;;5069775;28;20044;-66
2023/04/19 12:40:26;;;;;;;3.85;2.30;;;15.00;62.20;;;;;;5063129;28;20042;-65
2023/04/19 12:42:52;;;;;;;4.60;2.40;;;15.00;61.20;;;;;;5071164;28;20098;-65
2023/04/19 12:45:19;;;;;;;4.43;2.00;;;15.10;61.50;;;;;;5069676;28;20429;-65